createdAt,value
2017-07-27T08:03:58.811Z,22.1
2017-07-27T08:05:00.540Z,22.1
2017-07-27T08:14:57.775Z,21.9
2017-07-27T08:15:59.491Z,21.9
2017-07-27T08:17:01.284Z,22.0
2017-07-27T08:18:02.992Z,21.9
2017-07-27T08:19:04.652Z,21.9
2017-07-27T08:20:06.352Z,22.0
2017-07-27T08:21:08.019Z,22.0
2017-07-27T08:22:09.689Z,22.1
2017-07-27T08:23:11.414Z,22.2
2017-07-27T08:24:23.847Z,22.2
2017-07-27T08:25:25.617Z,22.3
2017-07-27T08:26:38.325Z,22.4
2017-07-27T08:27:40.045Z,22.4
2017-07-27T08:28:43.875Z,22.5
2017-07-27T08:29:45.600Z,22.7
2017-07-27T08:30:59.335Z,22.8
2017-07-27T08:32:01.057Z,22.7
2017-07-27T08:33:02.827Z,22.7
2017-07-27T08:34:04.557Z,22.7
2017-07-27T08:35:06.342Z,22.7
2017-07-27T08:36:08.088Z,22.6
2017-07-27T08:37:09.855Z,22.6
2017-07-27T08:38:11.570Z,22.8
2017-07-27T08:39:15.288Z,22.7
2017-07-27T08:40:17.018Z,22.7
2017-07-27T08:41:18.769Z,22.7
2017-07-27T08:42:21.561Z,22.5
2017-07-27T08:43:23.337Z,22.5
2017-07-27T08:44:26.195Z,22.4
2017-07-27T08:45:27.937Z,22.5
2017-07-27T08:46:29.749Z,22.6
2017-07-27T08:47:31.438Z,22.7
2017-07-27T08:48:34.268Z,22.7
2017-07-27T08:49:35.996Z,22.7
2017-07-27T08:50:37.754Z,22.8
2017-07-27T08:51:39.482Z,22.7
2017-07-27T08:52:41.191Z,22.8
2017-07-27T08:53:42.928Z,22.7
2017-07-27T08:54:44.745Z,22.6
2017-07-27T08:55:46.515Z,22.4
2017-07-27T08:56:48.364Z,22.4
2017-07-27T08:57:50.018Z,22.2
2017-07-27T08:58:51.830Z,22.1
2017-07-27T08:59:53.602Z,22.1
2017-07-27T09:00:55.417Z,21.9
2017-07-27T09:01:57.134Z,21.8
2017-07-27T09:02:58.793Z,21.7
2017-07-27T09:04:00.517Z,21.6
2017-07-27T09:05:02.329Z,21.6
2017-07-27T09:06:04.070Z,21.5
2017-07-27T09:07:05.813Z,21.5
2017-07-27T09:08:07.461Z,21.4
2017-07-27T09:09:09.222Z,21.5
2017-07-27T09:10:10.960Z,21.6
2017-07-27T09:11:12.700Z,21.7
2017-07-27T09:12:14.420Z,21.8
2017-07-27T09:13:16.158Z,21.9
2017-07-27T09:14:17.874Z,22.0
2017-07-27T09:15:19.544Z,21.9
2017-07-27T09:16:21.264Z,22.0
2017-07-27T09:17:22.916Z,22.0
2017-07-27T09:18:24.648Z,22.0
2017-07-27T09:19:26.427Z,22.0
2017-07-27T09:20:28.152Z,22.1
2017-07-27T09:21:29.901Z,22.2
2017-07-27T09:22:31.617Z,22.2
2017-07-27T09:23:33.351Z,22.3
2017-07-27T09:24:35.004Z,22.2
2017-07-27T09:25:36.686Z,22.1
2017-07-27T09:26:38.410Z,22.1
2017-07-27T09:27:40.125Z,22.1
2017-07-27T09:28:41.844Z,22.1
2017-07-27T09:29:43.617Z,22.2
2017-07-27T09:30:45.331Z,22.4
2017-07-27T09:31:46.988Z,22.7
2017-07-27T09:32:48.724Z,22.8
2017-07-27T09:33:50.387Z,22.9
2017-07-27T09:34:52.114Z,22.9
2017-07-27T09:35:53.858Z,23.0
2017-07-27T09:36:55.584Z,23.2
2017-07-27T09:37:57.312Z,23.3
2017-07-27T09:38:59.041Z,23.3
2017-07-27T09:40:00.815Z,23.4
2017-07-27T09:41:02.494Z,23.3
2017-07-27T09:42:04.274Z,23.2
2017-07-27T09:43:05.993Z,23.2
2017-07-27T09:44:07.739Z,23.3
2017-07-27T09:45:09.480Z,23.3
2017-07-27T09:46:11.144Z,23.4
2017-07-27T09:47:12.988Z,23.4
2017-07-27T09:48:14.704Z,23.4
2017-07-27T09:49:16.456Z,23.4
2017-07-27T09:50:18.200Z,23.3
2017-07-27T09:51:19.858Z,23.2
2017-07-27T09:52:21.618Z,23.1
2017-07-27T09:53:23.293Z,23.3
2017-07-27T09:54:25.095Z,23.3
2017-07-27T09:55:26.918Z,23.4
2017-07-27T09:56:28.597Z,23.2
2017-07-27T09:57:30.395Z,23.2
2017-07-27T09:58:32.131Z,23.3
2017-07-27T09:59:33.879Z,23.4
2017-07-27T10:00:35.636Z,23.5
2017-07-27T10:01:37.296Z,23.4
2017-07-27T10:02:39.029Z,23.5
2017-07-27T10:03:47.074Z,23.5
2017-07-27T10:04:48.826Z,23.6
2017-07-27T10:05:50.662Z,23.7
2017-07-27T10:06:52.380Z,23.9
2017-07-27T10:07:54.134Z,24.0
2017-07-27T10:08:55.861Z,24.1
2017-07-27T10:09:57.590Z,24.2
2017-07-27T10:10:59.330Z,24.2
2017-07-27T10:12:01.795Z,24.1
2017-07-27T10:13:03.549Z,24.1
2017-07-27T10:14:05.321Z,24.0
2017-07-27T10:15:07.048Z,23.9
2017-07-27T10:16:08.730Z,23.8
2017-07-27T10:17:10.432Z,23.8
2017-07-27T10:18:12.233Z,23.5
2017-07-27T10:19:14.076Z,23.5
2017-07-27T10:20:15.743Z,23.5
2017-07-27T10:21:17.493Z,23.4
2017-07-27T10:22:19.471Z,23.5
2017-07-27T10:23:21.272Z,23.5
2017-07-27T10:24:22.939Z,23.5
2017-07-27T10:25:24.677Z,23.5
2017-07-27T10:26:26.668Z,23.5
2017-07-27T10:27:28.423Z,23.6
2017-07-27T10:28:30.159Z,23.5
2017-07-27T10:29:32.111Z,23.5
2017-07-27T10:30:33.803Z,23.6
2017-07-27T10:31:35.538Z,23.6
2017-07-27T10:32:37.195Z,23.6
2017-07-27T10:33:40.625Z,23.6
2017-07-27T10:34:44.321Z,23.6
2017-07-27T10:35:45.980Z,23.5
2017-07-27T10:36:49.741Z,23.5
2017-07-27T10:37:51.419Z,23.4
2017-07-27T10:38:53.167Z,23.3
2017-07-27T10:39:54.801Z,23.5
2017-07-27T10:41:03.279Z,23.4
2017-07-27T10:42:05.007Z,23.5
2017-07-27T10:43:11.343Z,23.4
2017-07-27T10:44:13.142Z,23.5
2017-07-27T10:45:29.894Z,23.6
2017-07-27T10:46:31.630Z,23.7
2017-07-27T11:16:44.440Z,24.1
2017-07-27T11:17:46.132Z,24.2
2017-07-27T11:18:47.795Z,24.3
2017-07-27T11:19:49.561Z,24.4
2017-07-27T11:20:51.226Z,24.6
2017-07-27T11:21:52.894Z,24.6
2017-07-27T11:22:54.599Z,24.6
2017-07-27T11:23:56.261Z,24.8
2017-07-27T11:24:57.972Z,24.8
2017-07-27T11:25:59.738Z,24.9
2017-07-27T11:27:01.429Z,24.9
2017-07-27T11:28:03.245Z,25.1
2017-07-27T11:29:04.933Z,25.2
2017-07-27T11:30:06.632Z,25.2
2017-07-27T11:31:08.290Z,25.2
2017-07-27T11:32:10.126Z,25.2
2017-07-27T11:33:11.795Z,25.3
2017-07-27T11:34:13.634Z,25.1
2017-07-27T11:35:15.300Z,25.1
2017-07-27T11:36:17.120Z,25.1
2017-07-27T11:37:18.797Z,25.2
2017-07-27T11:38:20.619Z,25.2
2017-07-27T11:39:22.343Z,25.4
2017-07-27T11:40:24.018Z,25.5
2017-07-27T11:41:25.850Z,25.3
2017-07-27T11:42:27.574Z,25.3
2017-07-27T11:43:29.233Z,24.9
2017-07-27T11:44:30.999Z,24.7
2017-07-27T11:45:32.659Z,24.4
2017-07-27T11:46:34.497Z,24.5
2017-07-27T11:47:36.150Z,24.5
2017-07-27T11:48:37.806Z,24.5
2017-07-27T11:49:39.484Z,24.4
2017-07-27T11:50:41.170Z,24.4
2017-07-27T11:51:43.919Z,24.4
2017-07-27T11:52:45.601Z,24.3
2017-07-27T11:53:48.326Z,24.5
2017-07-27T11:54:50.016Z,24.5
2017-07-27T11:55:51.795Z,24.7
2017-07-27T11:56:53.463Z,24.6
2017-07-27T11:58:11.995Z,24.6
2017-07-27T11:59:13.667Z,24.5
2017-07-27T12:18:49.962Z,24.9
2017-07-27T12:19:51.619Z,24.9
2017-07-27T12:20:54.541Z,24.8
2017-07-27T12:21:56.198Z,24.7
2017-07-27T12:22:59.970Z,24.6
2017-07-27T12:24:01.624Z,24.4
2017-07-27T12:25:18.921Z,24.4
2017-07-27T12:26:20.584Z,24.4
2017-07-27T12:27:38.924Z,24.5
2017-07-27T12:28:40.571Z,24.7
2017-07-27T12:29:43.319Z,24.8
2017-07-27T12:30:44.982Z,24.8
2017-07-27T12:31:46.718Z,24.7
2017-07-27T12:32:48.369Z,24.7
2017-07-27T12:33:50.109Z,24.7
2017-07-27T12:34:51.853Z,24.8
2017-07-27T12:35:53.613Z,24.8
2017-07-27T12:36:55.288Z,24.8
2017-07-27T12:37:57.103Z,24.9
2017-07-27T12:38:58.838Z,25.1
2017-07-27T12:40:00.491Z,25.1
2017-07-27T12:41:02.149Z,25.1
2017-07-27T12:42:04.927Z,25.1
2017-07-27T12:43:06.590Z,25.2
2017-07-27T12:44:09.789Z,25.2
2017-07-27T12:45:11.456Z,25.2
2017-07-27T12:46:14.215Z,25.2
2017-07-27T12:47:15.881Z,25.1
2017-07-27T12:48:28.522Z,25.1
2017-07-27T12:49:30.181Z,25.1
2017-07-27T12:50:36.868Z,25.0
2017-07-27T12:51:38.532Z,25.0
2017-07-27T12:52:40.272Z,25.0
2017-07-27T12:53:41.918Z,24.9
2017-07-27T12:54:45.721Z,24.9
2017-07-27T12:55:47.375Z,24.8
2017-07-27T12:56:49.103Z,24.8
2017-07-27T12:57:50.771Z,24.8
2017-07-27T12:59:03.480Z,24.7
2017-07-27T13:00:05.149Z,24.7
2017-07-27T13:01:06.859Z,24.8
2017-07-27T13:02:08.528Z,24.8
2017-07-27T13:03:12.307Z,24.8
2017-07-27T13:04:14.030Z,24.7
2017-07-27T13:05:16.813Z,24.7
2017-07-27T13:06:18.488Z,24.7
2017-07-27T13:07:22.268Z,24.7
2017-07-27T13:08:23.972Z,24.6
2017-07-27T13:09:25.935Z,24.3
2017-07-27T13:10:27.743Z,24.2
2017-07-27T13:11:29.454Z,24.0
2017-07-27T13:12:31.124Z,23.9
2017-07-27T13:13:48.460Z,23.7
2017-07-27T13:14:50.266Z,23.7
2017-07-27T13:15:59.154Z,23.7
2017-07-27T13:17:01.046Z,23.7
2017-07-27T13:18:03.002Z,23.8
2017-07-27T13:19:04.947Z,23.8
2017-07-27T13:20:06.961Z,23.8
2017-07-27T13:21:08.858Z,23.8
2017-07-27T13:22:11.898Z,23.9
2017-07-27T13:23:13.805Z,23.9
2017-07-27T13:24:17.825Z,23.8
2017-07-27T13:25:19.716Z,23.9
2017-07-27T13:26:21.685Z,23.8
2017-07-27T13:27:23.674Z,23.8
2017-07-27T13:28:32.179Z,23.8
2017-07-27T13:29:33.968Z,23.8
2017-07-27T13:30:42.468Z,23.6
2017-07-27T13:31:44.198Z,23.6
2017-07-27T13:32:47.990Z,23.6
2017-07-27T13:33:49.767Z,23.5
2017-07-27T13:34:53.583Z,23.4
2017-07-27T13:35:55.355Z,23.4
2017-07-27T13:36:58.220Z,23.3
2017-07-27T13:38:00.024Z,23.2
2017-07-27T13:39:08.577Z,23.2
2017-07-27T13:40:10.401Z,23.1
2017-07-27T13:41:23.007Z,22.9
2017-07-27T13:42:24.848Z,22.9
2017-07-27T13:43:27.850Z,22.9
2017-07-27T13:44:29.784Z,22.8
2017-07-27T13:45:31.789Z,22.8
2017-07-27T13:46:33.745Z,22.7
2017-07-27T13:47:36.742Z,22.7
2017-07-27T13:48:38.672Z,22.7
2017-07-27T13:49:40.505Z,22.6
2017-07-27T13:50:42.435Z,22.6
2017-07-27T13:51:44.407Z,22.5
2017-07-27T13:52:46.369Z,22.5
2017-07-27T13:53:48.223Z,22.5
2017-07-27T13:54:50.104Z,22.6
2017-07-27T13:55:52.130Z,22.7
2017-07-27T13:56:54.061Z,22.7
2017-07-27T13:58:00.549Z,22.9
2017-07-27T13:59:02.342Z,23.1
2017-07-27T14:00:05.217Z,23.3
2017-07-27T14:01:07.015Z,23.4
2017-07-27T14:02:09.832Z,23.5
2017-07-27T14:03:11.512Z,23.6
2017-07-27T14:04:14.309Z,23.6
2017-07-27T14:05:16.040Z,23.6
2017-07-27T14:06:17.707Z,23.7
2017-07-27T14:07:19.443Z,23.7
2017-07-27T14:08:27.949Z,23.7
2017-07-27T14:09:29.700Z,23.8
2017-07-27T14:10:33.427Z,23.9
2017-07-27T14:11:35.145Z,23.9
2017-07-27T14:12:37.864Z,23.9
2017-07-27T14:13:39.635Z,24.0
2017-07-27T14:14:46.002Z,24.1
2017-07-27T14:15:47.739Z,24.1
2017-07-27T14:16:49.509Z,24.2
2017-07-27T14:17:51.243Z,24.1
2017-07-27T14:18:55.045Z,24.2
2017-07-27T14:19:56.772Z,24.2
2017-07-27T14:20:58.574Z,24.2
2017-07-27T14:22:00.236Z,24.1
2017-07-27T14:23:14.036Z,24.2
2017-07-27T14:24:15.693Z,24.2
2017-07-27T14:25:17.515Z,24.1
2017-07-27T14:26:19.258Z,24.1
2017-07-27T14:27:22.165Z,24.0
2017-07-27T14:28:23.903Z,23.9
2017-07-27T14:29:26.672Z,23.8
2017-07-27T14:30:28.420Z,23.9
2017-07-27T14:31:31.191Z,23.8
2017-07-27T14:32:32.852Z,23.8
2017-07-27T14:33:34.690Z,23.8
2017-07-27T14:34:36.434Z,23.8
2017-07-27T14:35:38.196Z,23.8
2017-07-27T14:36:39.942Z,23.9
2017-07-27T14:37:41.626Z,23.8
2017-07-27T14:38:43.346Z,23.8
2017-07-27T14:39:45.003Z,23.8
2017-07-27T14:40:46.805Z,23.9
2017-07-27T14:41:48.657Z,23.9
2017-07-27T14:42:50.408Z,24.0
2017-07-27T14:43:56.915Z,24.1
2017-07-27T14:44:58.641Z,24.1
2017-07-27T14:46:00.390Z,24.2
2017-07-27T14:47:02.048Z,24.3
2017-07-27T14:48:05.795Z,24.2
2017-07-27T14:49:07.552Z,24.3
2017-07-27T14:50:09.301Z,24.2
2017-07-27T14:51:11.021Z,24.3
2017-07-27T14:52:13.755Z,24.2
2017-07-27T14:53:15.476Z,24.0
2017-07-27T14:54:17.141Z,24.0
2017-07-27T14:55:18.878Z,23.9
2017-07-27T14:56:20.616Z,23.7
2017-07-27T14:57:22.337Z,23.8
2017-07-27T14:58:24.065Z,23.6
2017-07-27T14:59:25.803Z,23.6
2017-07-27T15:00:27.560Z,23.6
2017-07-27T15:01:29.178Z,23.5
2017-07-27T15:02:30.905Z,23.4
2017-07-27T15:03:32.564Z,23.4
2017-07-27T15:04:34.299Z,23.4
2017-07-27T15:05:36.031Z,23.4
2017-07-27T15:06:37.783Z,23.4
2017-07-27T15:07:39.544Z,23.5
2017-07-27T15:08:41.251Z,23.5
2017-07-27T15:09:42.968Z,23.5
2017-07-27T15:10:44.631Z,23.5
2017-07-27T15:11:46.391Z,23.5
2017-07-27T15:12:48.143Z,23.4
2017-07-27T15:13:49.898Z,23.3
2017-07-27T15:14:51.698Z,23.3
2017-07-27T15:15:53.362Z,23.3
2017-07-27T15:16:57.115Z,23.1
2017-07-27T15:17:58.869Z,23.0
2017-07-27T15:19:00.609Z,23.1
2017-07-27T15:20:02.337Z,23.0
2017-07-27T15:21:04.071Z,22.9
2017-07-27T15:22:05.797Z,22.9
2017-07-27T15:23:07.452Z,22.9
2017-07-27T15:24:09.199Z,22.9
2017-07-27T15:25:10.861Z,22.9
2017-07-27T15:26:12.604Z,22.9
2017-07-27T15:27:14.355Z,22.9
2017-07-27T15:28:16.106Z,23.0
2017-07-27T15:29:17.922Z,23.0
2017-07-27T15:30:19.589Z,23.0
2017-07-27T15:31:21.346Z,23.0
2017-07-27T15:32:23.090Z,23.1
2017-07-27T15:33:24.817Z,22.9
2017-07-27T15:34:26.559Z,23.0
2017-07-27T15:35:28.283Z,23.0
2017-07-27T15:36:30.043Z,23.1
2017-07-27T15:37:31.772Z,23.1
2017-07-27T15:38:33.493Z,23.1
2017-07-27T15:39:35.283Z,23.1
2017-07-27T15:40:36.987Z,23.1
2017-07-27T15:41:38.691Z,23.1
2017-07-27T15:42:40.393Z,23.0
2017-07-27T15:43:42.109Z,23.0
2017-07-27T15:44:43.859Z,23.0
2017-07-27T15:45:46.575Z,23.0
2017-07-27T15:46:48.305Z,22.9
2017-07-27T15:47:50.038Z,22.8
2017-07-27T15:48:51.801Z,22.7
2017-07-27T15:49:53.537Z,22.7
2017-07-27T15:50:55.290Z,22.5
2017-07-27T15:51:56.990Z,22.5
2017-07-27T15:52:58.751Z,22.7
2017-07-27T15:54:00.455Z,22.6
2017-07-27T15:55:02.136Z,22.8
2017-07-27T15:56:05.906Z,22.9
2017-07-27T15:57:07.647Z,22.9
2017-07-27T15:58:09.384Z,22.9
2017-07-27T15:59:11.120Z,23.0
2017-07-27T16:00:12.854Z,23.0
2017-07-27T16:01:14.614Z,23.1
2017-07-27T16:02:16.394Z,23.0
2017-07-27T16:03:18.120Z,23.0
2017-07-27T16:04:19.852Z,23.0
2017-07-27T16:05:21.616Z,22.9
2017-07-27T16:06:23.347Z,22.9
2017-07-27T16:07:25.026Z,22.8
2017-07-27T16:08:26.763Z,22.7
2017-07-27T16:09:28.480Z,22.7
2017-07-27T16:10:30.229Z,22.7
2017-07-27T16:11:31.970Z,22.6
2017-07-27T16:12:33.705Z,22.7
2017-07-27T16:13:35.684Z,22.7
2017-07-27T16:14:37.416Z,22.6
2017-07-27T16:15:39.166Z,22.7
2017-07-27T16:16:40.940Z,22.7
2017-07-27T16:17:42.600Z,22.7
2017-07-27T16:18:44.380Z,22.7
2017-07-27T16:19:46.110Z,22.7
2017-07-27T16:20:47.939Z,22.7
2017-07-27T16:21:49.677Z,22.7
2017-07-27T16:22:51.363Z,22.8
2017-07-27T16:23:53.101Z,22.9
2017-07-27T16:24:54.846Z,22.9
2017-07-27T16:25:56.595Z,23.0
2017-07-27T16:26:58.358Z,23.0
2017-07-27T16:28:00.024Z,23.0
2017-07-27T16:29:02.771Z,23.0
2017-07-27T16:30:04.466Z,23.0
2017-07-27T16:31:06.207Z,22.9
2017-07-27T16:32:08.007Z,23.0
2017-07-27T16:33:09.765Z,23.1
2017-07-27T16:34:11.507Z,23.1
2017-07-27T16:35:13.169Z,23.2
2017-07-27T16:36:14.906Z,23.1
2017-07-27T16:37:16.643Z,23.1
2017-07-27T16:38:18.393Z,23.1
2017-07-27T16:39:20.126Z,22.9
2017-07-27T16:40:21.852Z,22.9
2017-07-27T16:41:23.598Z,23.0
2017-07-27T16:42:25.252Z,22.8
2017-07-27T16:43:26.976Z,22.7
2017-07-27T16:44:28.710Z,22.7
2017-07-27T16:45:30.444Z,22.7
2017-07-27T16:46:32.204Z,22.7
2017-07-27T16:47:33.935Z,22.5
2017-07-27T16:48:35.659Z,22.5
2017-07-27T16:49:37.332Z,22.4
2017-07-27T16:50:39.092Z,22.4
2017-07-27T16:51:40.828Z,22.4
2017-07-27T16:52:42.549Z,22.4
2017-07-27T16:53:44.295Z,22.4
2017-07-27T16:54:46.029Z,22.4
2017-07-27T16:55:47.761Z,22.4
2017-07-27T16:56:49.427Z,22.3
2017-07-27T16:57:51.183Z,22.3
2017-07-27T16:58:52.911Z,22.2
2017-07-27T16:59:54.666Z,22.2
2017-07-27T17:00:56.392Z,22.1
2017-07-27T17:01:58.114Z,22.1
2017-07-27T17:02:59.849Z,22.1
2017-07-27T17:04:01.519Z,22.1
2017-07-27T17:05:03.287Z,22.0
2017-07-27T17:06:05.041Z,22.0
2017-07-27T17:07:06.792Z,21.9
2017-07-27T17:08:08.540Z,21.9
2017-07-27T17:09:10.208Z,21.9
2017-07-27T17:10:11.935Z,22.0
2017-07-27T17:11:13.656Z,22.0
2017-07-27T17:12:15.397Z,22.0
2017-07-27T17:13:17.109Z,22.0
2017-07-27T17:14:18.833Z,21.9
2017-07-27T17:15:20.666Z,21.8
2017-07-27T17:16:22.346Z,21.7
2017-07-27T17:17:24.085Z,21.7
2017-07-27T17:18:25.815Z,21.6
2017-07-27T17:19:27.543Z,21.6
2017-07-27T17:20:29.294Z,21.5
2017-07-27T17:21:31.021Z,21.3
2017-07-27T17:22:32.804Z,21.4
2017-07-27T17:23:35.457Z,21.3
2017-07-27T17:24:37.222Z,21.2
2017-07-27T17:25:38.958Z,21.3
2017-07-27T17:26:40.682Z,21.2
2017-07-27T17:27:42.418Z,21.2
2017-07-27T17:28:44.315Z,21.3
2017-07-27T17:29:46.060Z,21.2
2017-07-27T17:30:47.842Z,21.3
2017-07-27T17:31:49.813Z,21.4
2017-07-27T17:32:52.486Z,21.7
2017-07-27T17:33:55.418Z,21.7
2017-07-27T17:34:57.097Z,21.8
2017-07-27T17:35:58.828Z,21.7
2017-07-27T17:37:00.777Z,21.7
2017-07-27T17:38:02.510Z,21.7
2017-07-27T17:39:04.380Z,21.7
2017-07-27T17:40:06.157Z,21.6
2017-07-27T17:41:07.977Z,21.6
2017-07-27T17:42:10.676Z,21.5
2017-07-27T17:43:12.406Z,21.4
2017-07-27T17:44:14.301Z,21.4
2017-07-27T17:45:16.148Z,21.3
2017-07-27T17:46:17.864Z,21.2
2017-07-27T17:47:19.659Z,21.3
2017-07-27T17:48:21.401Z,21.2
2017-07-27T17:49:23.242Z,21.2
2017-07-27T17:50:24.978Z,21.1
2017-07-27T17:51:26.809Z,21.0
2017-07-27T17:52:28.551Z,21.0
2017-07-27T17:53:31.284Z,20.9
2017-07-27T17:54:33.158Z,20.8
2017-07-27T17:55:34.970Z,20.8
2017-07-27T17:56:37.606Z,20.8
2017-07-27T17:57:39.941Z,20.7
2017-07-27T17:58:41.731Z,20.7
2017-07-27T17:59:43.532Z,20.6
2017-07-27T18:00:45.258Z,20.6
2017-07-27T18:01:47.115Z,20.4
2017-07-27T18:02:48.897Z,20.5
2017-07-27T18:03:50.993Z,20.4
2017-07-27T18:04:52.940Z,20.4
2017-07-27T18:05:56.187Z,20.3
2017-07-27T18:06:57.854Z,20.3
2017-07-27T18:07:59.647Z,20.1
2017-07-27T18:09:01.318Z,20.1
2017-07-27T18:10:03.005Z,20.1
2017-07-27T18:11:04.683Z,20.0
2017-07-27T18:12:07.108Z,20.0
2017-07-27T18:13:08.830Z,20.0
2017-07-27T18:14:10.680Z,20.0
2017-07-27T18:15:12.814Z,19.9
2017-07-27T18:16:15.685Z,20.0
2017-07-27T18:17:17.449Z,20.0
2017-07-27T18:18:21.545Z,19.8
2017-07-27T18:19:23.323Z,19.8
2017-07-27T18:20:25.224Z,19.8
2017-07-27T18:21:27.104Z,19.7
2017-07-27T18:22:28.898Z,19.6
2017-07-27T18:23:30.671Z,19.6
2017-07-27T18:33:22.324Z,19.4
2017-07-27T19:28:59.662Z,18.2
2017-07-27T19:30:01.385Z,18.2
2017-07-27T19:31:03.159Z,18.2
2017-07-27T19:32:05.022Z,18.2
2017-07-27T19:33:06.672Z,18.3
2017-07-27T19:34:08.336Z,18.3
2017-07-27T19:35:10.001Z,18.1
2017-07-27T19:36:11.666Z,18.3
2017-07-27T19:37:13.391Z,18.2
2017-07-27T19:38:15.040Z,18.2
2017-07-27T19:39:17.189Z,18.2
2017-07-27T19:40:18.867Z,18.2
2017-07-27T19:41:20.727Z,18.1
2017-07-27T19:42:22.367Z,18.0
2017-07-27T19:43:24.023Z,18.0
2017-07-27T19:44:25.683Z,18.0
2017-07-27T19:45:27.335Z,18.0
2017-07-27T19:46:28.983Z,18.0
2017-07-27T19:47:30.637Z,17.9
2017-07-27T19:48:32.508Z,17.9
2017-07-27T19:49:34.159Z,17.9
2017-07-27T19:50:35.815Z,17.9
2017-07-27T19:51:37.737Z,17.8
2017-07-27T19:52:39.505Z,17.8
2017-07-27T19:53:41.211Z,17.8
2017-07-27T19:54:43.023Z,17.8
2017-07-27T19:55:44.711Z,17.8
2017-07-27T19:56:46.491Z,17.7
2017-07-27T19:57:48.149Z,17.8
2017-07-27T19:58:49.883Z,17.7
2017-07-27T19:59:51.577Z,17.7
2017-07-27T20:00:53.335Z,17.6
2017-07-27T20:01:54.994Z,17.7
2017-07-27T20:02:56.769Z,17.6
2017-07-27T20:03:58.426Z,17.7
2017-07-27T20:05:00.229Z,17.6
2017-07-27T20:06:01.928Z,17.6
2017-07-27T20:07:03.668Z,17.5
2017-07-27T20:08:05.317Z,17.6
2017-07-27T20:09:07.068Z,17.5
2017-07-27T20:10:08.736Z,17.5
2017-07-27T20:11:10.461Z,17.5
2017-07-27T20:12:12.239Z,17.4
2017-07-27T20:13:13.939Z,17.4
2017-07-27T20:14:15.584Z,17.4
2017-07-27T20:15:17.333Z,17.5
2017-07-27T20:16:19.188Z,17.4
2017-07-27T20:17:20.996Z,17.4
2017-07-27T20:18:23.022Z,17.4
2017-07-27T20:19:24.765Z,17.4
2017-07-27T20:20:26.417Z,17.3
2017-07-27T20:21:28.122Z,17.3
2017-07-27T20:22:29.859Z,17.3
2017-07-27T20:23:31.652Z,17.3
2017-07-27T20:24:33.304Z,17.2
2017-07-27T20:25:36.765Z,17.2
2017-07-27T20:26:38.418Z,17.2
2017-07-27T20:27:40.156Z,17.2
2017-07-27T20:28:41.818Z,17.1
2017-07-27T20:29:43.701Z,17.2
2017-07-27T20:30:45.356Z,17.1
2017-07-27T20:31:47.165Z,17.2
2017-07-27T20:32:48.867Z,17.1
2017-07-27T20:33:50.638Z,17.2
2017-07-27T20:34:52.315Z,17.1
2017-07-27T20:35:54.061Z,17.2
2017-07-27T20:36:55.725Z,17.2
2017-07-27T20:37:57.524Z,17.2
2017-07-27T20:38:59.184Z,17.2
2017-07-27T20:40:00.927Z,17.2
2017-07-27T20:41:02.584Z,17.2
2017-07-27T20:42:05.106Z,17.3
2017-07-27T20:43:07.462Z,17.3
2017-07-27T20:44:09.074Z,17.3
2017-07-27T20:45:10.762Z,17.4
2017-07-27T20:46:12.619Z,17.3
2017-07-27T20:47:14.391Z,17.2
2017-07-27T20:48:16.152Z,17.3
2017-07-27T20:49:17.871Z,17.2
2017-07-27T20:50:19.672Z,17.2
2017-07-27T20:51:21.738Z,17.3
2017-07-27T20:52:23.756Z,17.3
2017-07-27T20:53:25.520Z,17.3
2017-07-27T20:54:28.091Z,17.3
2017-07-27T20:55:29.873Z,17.3
2017-07-27T20:56:31.726Z,17.3
2017-07-27T20:57:33.457Z,17.2
2017-07-27T20:58:35.274Z,17.2
2017-07-27T20:59:37.066Z,17.1
2017-07-27T21:00:39.498Z,17.3
2017-07-27T21:01:42.114Z,17.3
2017-07-27T21:02:43.921Z,17.2
2017-07-27T21:03:45.661Z,17.1
2017-07-27T21:04:47.769Z,17.1
2017-07-27T21:05:50.844Z,17.1
2017-07-27T21:06:52.562Z,17.1
2017-07-27T21:07:54.384Z,17.0
2017-07-27T21:08:56.212Z,17.0
2017-07-27T21:09:57.942Z,17.0
2017-07-27T21:10:59.762Z,17.0
2017-07-27T21:12:01.455Z,17.0
2017-07-27T21:13:03.391Z,16.9
2017-07-27T21:14:05.450Z,16.9
2017-07-27T21:15:07.220Z,16.9
2017-07-27T21:16:09.013Z,16.9
2017-07-27T21:17:10.867Z,16.9
2017-07-27T21:18:12.621Z,17.0
2017-07-27T21:19:15.460Z,17.0
2017-07-27T21:20:17.188Z,17.0
2017-07-27T21:40:11.594Z,17.0
2017-07-27T21:41:13.222Z,16.9
2017-07-27T21:42:14.922Z,16.9
2017-07-27T21:43:16.588Z,16.9
2017-07-27T21:44:23.032Z,16.9
2017-07-27T21:45:24.722Z,17.0
2017-07-27T21:46:26.404Z,16.9
2017-07-27T21:47:28.056Z,16.8
2017-07-27T21:48:30.065Z,16.8
2017-07-27T21:49:31.850Z,16.9
2017-07-27T21:50:33.505Z,16.9
2017-07-27T21:51:35.823Z,16.8
2017-07-27T21:52:37.512Z,16.8
2017-07-27T21:53:39.592Z,16.7
2017-07-27T21:54:43.154Z,16.6
2017-07-27T21:55:44.786Z,16.7
2017-07-27T21:56:46.440Z,16.7
2017-07-27T21:57:48.106Z,16.7
2017-07-27T21:58:49.758Z,16.7
2017-07-27T21:59:51.411Z,16.6
2017-07-27T22:00:53.121Z,16.6
2017-07-27T22:01:54.772Z,16.6
2017-07-27T22:02:58.467Z,16.6
2017-07-27T22:04:00.137Z,16.6
2017-07-27T22:05:01.853Z,16.5
2017-07-27T22:06:03.715Z,16.6
2017-07-27T22:07:05.360Z,16.5
2017-07-27T22:08:07.013Z,16.5
2017-07-27T22:09:08.669Z,16.5
2017-07-27T22:10:10.327Z,16.5
2017-07-27T22:11:12.043Z,16.5
2017-07-27T22:12:13.696Z,16.5
2017-07-27T22:13:15.427Z,16.5
2017-07-27T22:14:17.076Z,16.6
2017-07-27T22:15:18.835Z,16.5
2017-07-27T22:16:20.502Z,16.5
2017-07-27T22:17:22.226Z,16.6
2017-07-27T22:18:23.876Z,16.6
2017-07-27T22:19:25.620Z,16.6
2017-07-27T22:20:27.299Z,16.6
2017-07-27T22:21:28.959Z,16.6
2017-07-27T22:22:30.629Z,16.5
2017-07-27T22:23:32.284Z,16.5
2017-07-27T22:24:33.938Z,16.5
2017-07-27T22:25:35.612Z,16.4
2017-07-27T22:26:37.258Z,16.4
2017-07-27T22:27:38.928Z,16.3
2017-07-27T22:28:40.616Z,16.4
2017-07-27T22:29:42.277Z,16.3
2017-07-27T22:30:49.023Z,16.3
2017-07-27T22:31:50.687Z,16.3
2017-07-27T22:32:52.436Z,16.1
2017-07-27T22:33:54.086Z,16.2
2017-07-27T22:34:55.746Z,16.2
2017-07-27T22:35:57.473Z,16.2
2017-07-27T22:36:59.136Z,16.1
2017-07-27T22:38:00.785Z,16.0
2017-07-27T22:39:02.473Z,16.1
2017-07-27T22:40:04.141Z,16.0
2017-07-27T22:41:05.797Z,16.0
2017-07-27T22:42:07.548Z,16.0
2017-07-27T22:43:09.200Z,16.0
2017-07-27T22:44:10.859Z,16.0
2017-07-27T22:45:12.586Z,15.9
2017-07-27T22:46:14.247Z,15.9
2017-07-27T22:47:15.919Z,15.9
2017-07-27T22:48:17.569Z,15.8
2017-07-27T22:49:19.214Z,15.9
2017-07-27T22:50:20.888Z,15.9
2017-07-27T23:56:26.406Z,16.4
